createdAt,value
2023-03-29T00:38:54.867Z,98860.88
2023-03-29T00:49:36.196Z,98940.63
2023-03-29T00:52:46.541Z,98939.69
2023-03-29T00:56:06.877Z,98933.44
2023-03-29T00:59:21.882Z,98933.78
2023-03-29T01:02:40.155Z,98938.66
2023-03-29T01:05:55.881Z,98919.53
2023-03-29T01:09:12.900Z,98932.00
2023-03-29T01:12:31.342Z,98929.00
2023-03-29T01:15:38.451Z,98933.16
2023-03-29T01:18:47.209Z,98928.75
2023-03-29T01:22:13.925Z,98925.13
2023-03-29T01:25:35.979Z,98913.03
2023-03-29T01:28:54.855Z,98842.53
2023-03-29T01:32:22.495Z,98913.59
2023-03-29T01:58:52.944Z,98829.13
2023-03-29T02:02:05.790Z,98898.50
2023-03-29T02:05:20.305Z,98899.72
2023-03-29T02:08:47.057Z,98900.22
2023-03-29T02:15:57.267Z,98830.06
2023-03-29T02:19:05.197Z,98853.81
2023-03-29T02:22:13.866Z,98860.72
2023-03-29T02:25:24.755Z,98822.91
2023-03-29T02:28:34.152Z,98907.00
2023-03-29T02:31:53.829Z,98864.53
2023-03-29T02:35:13.140Z,98845.19
2023-03-29T02:38:20.508Z,98862.03
2023-03-29T02:41:30.753Z,98885.50
2023-03-29T02:44:45.234Z,98901.56
2023-03-29T02:48:00.489Z,98905.97
2023-03-29T02:51:20.057Z,98907.63
2023-03-29T02:54:32.140Z,98913.78
2023-03-29T02:57:41.120Z,98912.94
2023-03-29T03:00:51.747Z,98901.91
2023-03-29T03:04:02.597Z,98908.78
2023-03-29T03:07:23.094Z,98905.44
2023-03-29T03:10:39.535Z,98914.03
2023-03-29T03:13:47.059Z,98869.06
2023-03-29T03:20:59.568Z,98915.75
2023-03-29T03:24:08.220Z,98859.88
2023-03-29T03:30:52.010Z,98860.38
2023-03-29T03:42:11.997Z,98906.56
2023-03-29T03:45:24.943Z,98901.69
2023-03-29T03:49:00.554Z,98823.72
2023-03-29T03:56:09.264Z,98907.75
2023-03-29T04:03:26.782Z,98842.34
2023-03-29T04:06:33.857Z,98914.47
2023-03-29T04:09:58.564Z,98911.91
2023-03-29T04:13:26.589Z,98919.06
2023-03-29T04:16:50.996Z,98911.81
2023-03-29T04:20:31.146Z,98907.66
2023-03-29T04:23:47.034Z,98898.50
2023-03-29T04:26:55.446Z,98899.56
2023-03-29T04:30:03.287Z,98904.16
2023-03-29T04:33:34.563Z,98900.53
2023-03-29T04:36:44.157Z,98896.97
2023-03-29T04:40:07.482Z,98894.28
2023-03-29T04:43:26.088Z,98892.59
2023-03-29T04:46:40.688Z,98893.81
2023-03-29T04:50:22.141Z,98896.53
2023-03-29T04:53:31.696Z,98888.28
2023-03-29T04:56:38.329Z,98853.78
2023-03-29T05:00:15.669Z,98807.41
2023-03-29T05:03:42.757Z,98896.75
2023-03-29T05:06:57.727Z,98823.94
2023-03-29T05:25:47.961Z,98816.44
2023-03-29T05:28:58.004Z,98844.28
2023-03-29T06:06:56.086Z,98895.56
2023-03-29T06:25:55.205Z,98830.47
2023-03-29T06:29:05.617Z,98867.84
2023-03-29T06:32:13.160Z,98907.97
2023-03-29T06:39:38.412Z,98869.78
2023-03-29T06:43:05.640Z,98839.84
2023-03-29T06:46:31.127Z,98891.00
2023-03-29T06:50:05.046Z,98906.78
2023-03-29T06:53:18.651Z,98888.06
2023-03-29T06:56:35.178Z,98870.66
2023-03-29T06:59:49.515Z,98895.72
2023-03-29T07:03:13.514Z,98901.34
2023-03-29T07:06:20.796Z,98901.81
2023-03-29T07:09:30.039Z,98900.19
2023-03-29T07:12:54.881Z,98902.63
2023-03-29T07:16:02.176Z,98905.03
2023-03-29T07:19:29.114Z,98896.34
2023-03-29T07:22:35.965Z,98893.78
2023-03-29T07:25:43.561Z,98897.38
2023-03-29T07:28:50.745Z,98899.22
2023-03-29T07:31:57.735Z,98885.06
2023-03-29T07:35:26.865Z,98895.16
2023-03-29T07:38:34.026Z,98891.06
2023-03-29T07:41:49.738Z,98893.81
2023-03-29T07:44:56.019Z,98887.69
2023-03-29T07:48:03.694Z,98887.03
2023-03-29T07:51:29.639Z,98886.50
2023-03-29T07:54:46.975Z,98891.00
2023-03-29T07:58:07.297Z,98891.53
2023-03-29T08:01:18.731Z,98879.38
2023-03-29T08:04:52.060Z,98881.81
2023-03-29T08:08:27.043Z,98878.56
2023-03-29T08:11:38.856Z,98878.25
2023-03-29T08:14:53.718Z,98862.38
2023-03-29T08:18:11.016Z,98868.22
2023-03-29T08:21:17.818Z,98873.13
2023-03-29T08:24:30.367Z,98862.63
2023-03-29T08:27:42.712Z,98857.09
2023-03-29T08:30:50.565Z,98858.66
2023-03-29T08:33:57.934Z,98854.81
2023-03-29T08:37:24.882Z,98854.06
2023-03-29T08:40:38.182Z,98851.78
2023-03-29T08:44:11.607Z,98856.78
2023-03-29T08:47:38.146Z,98846.13
2023-03-29T08:50:53.666Z,98846.13
2023-03-29T08:54:09.564Z,98843.22
2023-03-29T08:57:52.083Z,98844.84
2023-03-29T09:01:12.158Z,98838.38
2023-03-29T09:04:38.690Z,98838.88
2023-03-29T09:07:56.411Z,98835.84
2023-03-29T09:11:31.861Z,98827.28
2023-03-29T09:15:09.510Z,98832.63
2023-03-29T09:18:37.363Z,98828.50
2023-03-29T09:22:00.115Z,98821.81
2023-03-29T09:25:21.923Z,98793.97
2023-03-29T09:28:40.381Z,98807.69
2023-03-29T09:31:50.531Z,98816.50
2023-03-29T09:35:18.529Z,98794.03
2023-03-29T09:38:26.085Z,98802.47
2023-03-29T09:41:41.839Z,98810.66
2023-03-29T09:44:55.774Z,98801.44
2023-03-29T09:48:17.709Z,98796.50
2023-03-29T09:51:37.007Z,98788.81
2023-03-29T09:54:44.181Z,98797.03
2023-03-29T09:58:18.970Z,98798.19
2023-03-29T10:01:41.782Z,98788.47
2023-03-29T10:05:01.068Z,98787.97
2023-03-29T10:08:22.947Z,98788.03
2023-03-29T10:11:36.472Z,98785.75
2023-03-29T10:14:51.490Z,98788.53
2023-03-29T10:18:04.361Z,98779.44
2023-03-29T10:21:20.518Z,98787.38
2023-03-29T10:24:30.009Z,98773.13
2023-03-29T10:27:37.569Z,98769.66
2023-03-29T10:30:44.020Z,98774.84
2023-03-29T10:33:57.328Z,98774.44
2023-03-29T10:37:08.567Z,98765.03
2023-03-29T10:40:28.855Z,98774.06
2023-03-29T10:43:42.645Z,98757.19
2023-03-29T10:46:49.372Z,98753.44
2023-03-29T10:49:59.017Z,98737.59
2023-03-29T10:53:21.539Z,98748.09
2023-03-29T10:56:42.436Z,98751.72
2023-03-29T11:00:05.089Z,98745.41
2023-03-29T11:03:49.535Z,98744.56
2023-03-29T11:07:22.820Z,98733.09
2023-03-29T11:10:51.796Z,98721.38
2023-03-29T11:14:16.065Z,98703.75
2023-03-29T11:17:51.116Z,98714.81
2023-03-29T11:21:13.116Z,98712.56
2023-03-29T11:24:37.352Z,98709.06
2023-03-29T11:27:59.757Z,98703.66
2023-03-29T11:31:22.180Z,98706.13
2023-03-29T11:34:47.118Z,98697.31
2023-03-29T11:38:05.776Z,98682.28
2023-03-29T11:41:22.297Z,98679.28
2023-03-29T11:44:34.492Z,98673.22
2023-03-29T11:47:48.852Z,98675.91
2023-03-29T11:51:07.032Z,98673.47
2023-03-29T11:54:24.443Z,98666.63
2023-03-29T11:57:40.260Z,98663.88
2023-03-29T12:00:56.566Z,98643.31
2023-03-29T12:04:13.374Z,98658.22
2023-03-29T12:07:30.987Z,98660.63
2023-03-29T12:10:45.153Z,98657.94
2023-03-29T12:13:59.618Z,98662.78
2023-03-29T12:17:18.486Z,98653.75
2023-03-29T12:20:32.265Z,98653.97
2023-03-29T12:23:41.626Z,98638.47
2023-03-29T12:27:20.941Z,98634.16
2023-03-29T12:30:45.850Z,98632.13
2023-03-29T12:34:35.154Z,98636.09
2023-03-29T12:38:22.490Z,98626.03
2023-03-29T12:41:52.137Z,98614.41
2023-03-29T12:45:40.304Z,98622.91
2023-03-29T12:48:54.045Z,98625.44
2023-03-29T12:52:07.904Z,98621.78
2023-03-29T12:55:33.177Z,98628.31
2023-03-29T12:58:56.285Z,98621.34
2023-03-29T13:02:10.057Z,98615.91
2023-03-29T13:05:36.567Z,98608.31
2023-03-29T13:08:48.759Z,98600.38
2023-03-29T13:11:58.846Z,98606.09
2023-03-29T13:15:25.471Z,98604.34
2023-03-29T13:18:58.129Z,98613.25
2023-03-29T13:22:33.083Z,98602.47
2023-03-29T13:26:11.642Z,98602.72
2023-03-29T13:29:48.233Z,98594.63
2023-03-29T13:33:17.753Z,98589.94
2023-03-29T13:36:48.229Z,98588.41
2023-03-29T13:39:58.439Z,98585.53
2023-03-29T13:43:24.625Z,98579.88
2023-03-29T13:46:51.404Z,98571.81
2023-03-29T13:50:05.624Z,98561.63
2023-03-29T13:53:28.182Z,98558.56
2023-03-29T13:56:45.251Z,98557.63
2023-03-29T14:00:02.827Z,98558.66
2023-03-29T14:03:31.185Z,98552.22
2023-03-29T14:06:41.910Z,98556.09
2023-03-29T14:09:54.048Z,98545.66
2023-03-29T14:13:04.164Z,98540.72
2023-03-29T14:16:16.303Z,98535.84
2023-03-29T14:19:33.263Z,98543.09
2023-03-29T14:22:40.838Z,98538.44
2023-03-29T14:25:46.975Z,98538.13
2023-03-29T14:28:59.098Z,98542.00
2023-03-29T14:32:19.134Z,98535.50
2023-03-29T14:35:35.340Z,98526.31
2023-03-29T14:38:42.725Z,98534.22
2023-03-29T14:41:55.067Z,98526.28
2023-03-29T14:45:09.537Z,98524.88
2023-03-29T14:48:19.790Z,98510.06
2023-03-29T14:51:30.776Z,98508.44
2023-03-29T14:54:38.749Z,98526.84
2023-03-29T14:57:46.221Z,98503.88
2023-03-29T15:00:55.530Z,98527.94
2023-03-29T15:04:09.245Z,98506.50
2023-03-29T15:07:17.149Z,98502.63
2023-03-29T15:10:23.765Z,98494.53
2023-03-29T15:13:31.937Z,98500.03
2023-03-29T15:16:45.024Z,98507.72
2023-03-29T15:19:56.384Z,98495.31
2023-03-29T15:23:06.913Z,98491.88
2023-03-29T15:26:23.492Z,98491.47
2023-03-29T15:29:42.159Z,98489.22
2023-03-29T15:32:49.299Z,98495.31
2023-03-29T15:35:58.275Z,98489.75
2023-03-29T15:39:05.044Z,98493.28
2023-03-29T15:42:13.676Z,98488.28
2023-03-29T15:45:26.050Z,98488.28
2023-03-29T15:48:33.983Z,98458.88
2023-03-29T15:51:44.611Z,98477.25
2023-03-29T15:54:50.627Z,98482.97
2023-03-29T15:57:59.094Z,98473.63
2023-03-29T16:01:23.801Z,98476.50
2023-03-29T16:04:30.659Z,98475.75
2023-03-29T16:07:39.143Z,98486.25
2023-03-29T16:10:47.298Z,98474.88
2023-03-29T16:13:53.489Z,98472.72
2023-03-29T16:17:06.168Z,98474.78
2023-03-29T16:20:15.149Z,98473.50
2023-03-29T16:23:24.721Z,98465.38
2023-03-29T16:26:32.207Z,98468.28
2023-03-29T16:29:41.858Z,98466.19
2023-03-29T16:32:48.218Z,98471.56
2023-03-29T16:35:55.461Z,98471.97
2023-03-29T16:39:05.897Z,98485.31
2023-03-29T16:42:14.813Z,98480.88
2023-03-29T16:45:22.745Z,98471.03
2023-03-29T16:48:30.098Z,98467.59
2023-03-29T16:51:36.295Z,98474.16
2023-03-29T16:54:45.646Z,98477.75
2023-03-29T16:57:54.823Z,98469.69
2023-03-29T17:01:02.255Z,98484.28
2023-03-29T17:04:08.502Z,98483.47
2023-03-29T17:07:15.707Z,98480.91
2023-03-29T17:10:24.984Z,98482.75
2023-03-29T17:13:32.650Z,98484.22
2023-03-29T17:16:39.288Z,98492.94
2023-03-29T17:19:46.119Z,98495.53
2023-03-29T17:22:54.145Z,98488.47
2023-03-29T17:26:03.709Z,98493.06
2023-03-29T17:29:09.812Z,98497.47
2023-03-29T17:32:16.785Z,98498.47
2023-03-29T17:35:22.956Z,98495.16
2023-03-29T17:38:30.603Z,98506.41
2023-03-29T17:41:39.335Z,98502.75
2023-03-29T17:44:46.413Z,98500.88
2023-03-29T17:47:55.455Z,98495.28
2023-03-29T17:51:02.314Z,98508.41
2023-03-29T17:54:08.682Z,98504.09
2023-03-29T17:57:17.993Z,98496.03
2023-03-29T18:00:25.148Z,98496.56
2023-03-29T18:03:32.104Z,98495.63
2023-03-29T18:06:38.046Z,98502.72
2023-03-29T18:09:44.721Z,98502.59
2023-03-29T18:12:53.335Z,98509.81
2023-03-29T18:16:00.193Z,98515.66
2023-03-29T18:19:06.227Z,98513.84
2023-03-29T18:22:12.964Z,98519.47
2023-03-29T18:25:21.180Z,98523.16
2023-03-29T18:28:33.763Z,98521.34
2023-03-29T18:31:39.991Z,98512.16
2023-03-29T18:34:46.761Z,98516.91
2023-03-29T18:37:52.842Z,98514.88
2023-03-29T18:40:59.727Z,98511.41
2023-03-29T18:44:08.723Z,98507.78
2023-03-29T18:47:15.329Z,98511.63
2023-03-29T18:50:21.559Z,98516.09
2023-03-29T18:53:28.574Z,98509.38
2023-03-29T18:56:35.655Z,98500.63
2023-03-29T18:59:44.967Z,98495.88
2023-03-29T19:02:52.230Z,98498.56
2023-03-29T19:05:59.196Z,98492.44
2023-03-29T19:09:05.916Z,98505.22
2023-03-29T19:12:12.848Z,98500.53
2023-03-29T19:15:22.442Z,98512.00
2023-03-29T19:18:29.461Z,98515.03
2023-03-29T19:21:36.225Z,98518.25
2023-03-29T19:24:43.048Z,98519.06
2023-03-29T19:27:50.544Z,98520.41
2023-03-29T19:31:02.142Z,98521.38
2023-03-29T19:34:09.930Z,98521.47
2023-03-29T19:37:17.794Z,98514.81
2023-03-29T19:40:23.889Z,98508.06
2023-03-29T19:43:31.918Z,98505.03
2023-03-29T19:46:40.746Z,98508.00
2023-03-29T19:49:47.929Z,98518.84
2023-03-29T19:52:54.708Z,98499.63
2023-03-29T19:56:02.265Z,98500.22
2023-03-29T19:59:09.128Z,98501.22
2023-03-29T20:02:18.448Z,98502.41
2023-03-29T20:05:24.489Z,98506.59
2023-03-29T20:08:31.439Z,98507.16
2023-03-29T20:11:37.629Z,98498.50
2023-03-29T20:14:44.313Z,98500.47
2023-03-29T20:17:54.146Z,98501.19
2023-03-29T20:21:02.192Z,98497.19
2023-03-29T20:24:09.630Z,98495.94
2023-03-29T20:27:16.946Z,98495.13
2023-03-29T20:30:24.005Z,98496.59
2023-03-29T20:33:33.536Z,98486.69
2023-03-29T20:36:40.528Z,98490.66
2023-03-29T20:39:47.946Z,98482.59
2023-03-29T20:42:55.917Z,98482.41
2023-03-29T20:46:03.042Z,98482.69
2023-03-29T20:49:12.150Z,98487.31
2023-03-29T20:52:21.197Z,98489.47
2023-03-29T20:55:30.741Z,98484.91
2023-03-29T20:58:42.443Z,98481.19
2023-03-29T21:01:50.489Z,98478.41
2023-03-29T21:05:02.650Z,98467.84
2023-03-29T21:08:09.075Z,98478.97
2023-03-29T21:11:17.418Z,98476.56
2023-03-29T21:14:23.454Z,98472.47
2023-03-29T21:17:30.428Z,98464.03
2023-03-29T21:20:40.663Z,98464.91
2023-03-29T21:23:47.704Z,98459.47
2023-03-29T21:26:53.651Z,98462.94
2023-03-29T21:30:00.256Z,98457.31
2023-03-29T21:33:06.210Z,98455.13
2023-03-29T21:36:16.817Z,98454.44
2023-03-29T21:39:22.769Z,98454.00
2023-03-29T21:42:29.509Z,98451.97
2023-03-29T21:45:35.925Z,98444.13
2023-03-29T21:48:42.669Z,98446.44
2023-03-29T21:51:51.541Z,98427.91
2023-03-29T21:54:58.287Z,98430.63
2023-03-29T21:58:04.200Z,98438.47
2023-03-29T22:01:11.904Z,98433.50
2023-03-29T22:04:33.202Z,98437.84
2023-03-29T22:07:45.744Z,98432.03
2023-03-29T22:10:55.583Z,98429.81
2023-03-29T22:14:02.240Z,98430.66
2023-03-29T22:17:09.676Z,98430.38
2023-03-29T22:20:18.614Z,98407.69
2023-03-29T22:23:28.031Z,98407.63
2023-03-29T22:26:36.234Z,98411.00
2023-03-29T22:29:42.416Z,98418.38
2023-03-29T22:32:49.025Z,98414.25
2023-03-29T22:35:54.979Z,98407.84
2023-03-29T22:39:04.526Z,98408.91
2023-03-29T22:42:10.564Z,98405.66
2023-03-29T22:45:17.498Z,98406.56
2023-03-29T22:48:23.471Z,98405.47
2023-03-29T22:51:30.221Z,98400.06
2023-03-29T22:54:38.668Z,98395.44
2023-03-29T22:57:45.681Z,98396.56
2023-03-29T23:00:51.810Z,98405.47
2023-03-29T23:03:58.646Z,98393.88
2023-03-29T23:07:04.637Z,98386.19
2023-03-29T23:10:16.022Z,98394.50
2023-03-29T23:13:26.145Z,98388.06
2023-03-29T23:16:32.994Z,98379.50
2023-03-29T23:19:39.151Z,98382.47
2023-03-29T23:22:45.776Z,98377.91
2023-03-29T23:25:56.695Z,98388.75
2023-03-29T23:29:04.464Z,98390.16
2023-03-29T23:32:10.776Z,98368.78
2023-03-29T23:35:18.052Z,98385.44
2023-03-29T23:38:24.450Z,98372.31
2023-03-29T23:41:33.985Z,98372.69
2023-03-29T23:44:40.061Z,98375.41
2023-03-29T23:47:48.093Z,98375.06
2023-03-29T23:50:54.607Z,98368.38
2023-03-29T23:54:01.467Z,98371.88
2023-03-29T23:57:11.060Z,98370.66
